June Lake Junction, California
Current Conditions -  °F | °C
As of 12:35 PM on Monday 26 Jan 2015 (Local Time) from KMMH Reporting Station
Clear Clear  
Wind Chill: 55°   Ceiling: Unl
Heat Index: 55°   Visibility: 10mi
Dew Point: 18°   Wind: 5mph
Humidity: 23%   Direction: 130°SE
Pressure: 30.2"   Gusts: NA
Location:  37.8196°N, 119.076°W
Report Text: KMMH 262035Z AUTO 13004KT 10SM CLR 13/M08 A3020 RMK AO1
Loading
Personal Weather Stations






























Interactive Weather Map New forecast layout! Learn more

10-Day Weather Forecast

Advertisements
Track Severe Weather on mobile